Time;durP1;ratioP1;P1;durP2;ratioP2;P2;SDS_P1;SDS_P2;PMS_P1;PMS_P2;Temp;Humidity;BMP_temperature;BMP_pressure;BME280_temperature;BME280_humidity;BME280_pressure;Samples;Min_cycle;Max_cycle;Signal;HPM_P1;HPM_P2
2021/12/24 00:00:00;;;;;;;9.63;6.50;;;;;;;-6.22;72.48;96850.19;5114058;28;20023;-67
2021/12/24 00:02:26;;;;;;;10.52;6.88;;;;;;;-6.29;72.37;96848.22;5113942;28;20027;-67
2021/12/24 00:04:51;;;;;;;10.50;7.20;;;;;;;-6.27;72.64;96841.53;5113884;28;20027;-63
2021/12/24 00:07:17;;;;;;;10.32;6.13;;;;;;;-6.26;72.39;96844.94;5113835;28;20069;-63
2021/12/24 00:09:42;;;;;;;12.52;6.78;;;;;;;-6.29;72.37;96827.00;5113711;28;20023;-67
2021/12/24 00:12:15;;;;;;;10.70;7.25;;;;;;;-6.24;72.46;96828.00;5113853;27;20024;-63
2021/12/24 00:14:45;;;;;;;10.23;6.25;;;;;;;-6.19;72.27;96826.50;5113863;28;20020;-63
2021/12/24 00:17:14;;;;;;;10.55;6.57;;;;;;;-6.16;72.37;96818.06;5113703;28;20027;-66
2021/12/24 00:35:49;;;;;;;9.60;5.40;;;;;;;-6.18;72.26;96827.38;5113857;28;20149;-67
2021/12/24 00:38:14;;;;;;;9.13;6.22;;;;;;;-6.20;72.28;96821.34;5113541;28;20024;-63
2021/12/24 00:40:46;;;;;;;10.00;6.10;;;;;;;-6.19;72.27;96825.63;5112214;28;20028;-65
2021/12/24 00:43:14;;;;;;;9.15;5.32;;;;;;;-6.30;72.38;96817.66;5113362;28;20027;-64
2021/12/24 00:45:43;;;;;;;10.23;5.50;;;;;;;-6.31;72.38;96818.44;5113631;28;20027;-65
2021/12/24 00:48:12;;;;;;;7.25;5.25;;;;;;;-6.31;72.62;96806.59;5116867;28;20031;-64
2021/12/24 00:56:14;;;;;;;9.57;5.28;;;;;;;-6.27;72.68;96793.13;5117647;28;20062;-67
2021/12/24 00:58:42;;;;;;;9.18;4.85;;;;;;;-6.19;72.75;96778.09;5117409;28;20019;-65
2021/12/24 01:01:12;;;;;;;9.18;5.60;;;;;;;-6.20;72.94;96781.47;5117457;28;20024;-65
2021/12/24 01:03:39;;;;;;;7.13;4.78;;;;;;;-6.19;73.40;96777.22;5117610;28;20110;-66
2021/12/24 01:06:05;;;;;;;7.97;5.18;;;;;;;-6.16;73.40;96773.09;5117426;28;20031;-64
2021/12/24 01:08:31;;;;;;;9.63;5.57;;;;;;;-6.11;73.60;96770.69;5117337;28;20358;-63
2021/12/24 01:10:59;;;;;;;8.90;5.15;;;;;;;-6.02;73.63;96775.19;5117236;28;20038;-61
2021/12/24 01:13:26;;;;;;;8.10;4.75;;;;;;;-6.01;73.40;96761.63;5117134;28;20118;-63
2021/12/24 01:16:08;;;;;;;9.15;5.60;;;;;;;-5.97;73.53;96765.97;5117175;28;20031;-63
2021/12/24 01:18:49;;;;;;;9.77;5.57;;;;;;;-5.93;73.44;96755.06;5117055;28;20027;-66
2021/12/24 01:26:37;;;;;;;9.13;5.18;;;;;;;-5.84;73.47;96762.16;5116991;28;20473;-65
2021/12/24 01:42:54;;;;;;;9.10;5.45;;;;;;;-5.71;73.14;96732.78;5107275;28;20051;-64
2021/12/24 01:45:19;;;;;;;7.78;4.85;;;;;;;-5.73;73.19;96722.53;5116543;28;20027;-65
2021/12/24 01:47:45;;;;;;;6.43;4.63;;;;;;;-5.71;73.00;96713.25;5116546;28;20019;-62
2021/12/24 01:50:12;;;;;;;7.22;4.50;;;;;;;-5.71;72.98;96709.84;5116550;28;20047;-66
2021/12/24 01:52:38;;;;;;;6.55;4.55;;;;;;;-5.73;72.96;96689.38;5116692;28;20016;-65
2021/12/24 01:55:05;;;;;;;11.15;5.13;;;;;;;-5.72;73.20;96695.38;5116449;28;20123;-68
2021/12/24 01:57:32;;;;;;;8.85;5.35;;;;;;;-5.79;73.17;96691.75;5116590;28;20035;-65
2021/12/24 01:59:59;;;;;;;7.68;5.50;;;;;;;-5.80;73.47;96696.81;5115339;28;20020;-65
2021/12/24 02:02:27;;;;;;;8.88;5.53;;;;;;;-5.75;73.64;96693.56;5116319;28;20042;-66
2021/12/24 02:04:52;;;;;;;7.13;5.10;;;;;;;-5.73;73.87;96689.38;5116220;28;20036;-66
2021/12/24 02:07:18;;;;;;;8.52;4.85;;;;;;;-5.72;73.39;96696.22;5116165;28;20381;-67
2021/12/24 02:09:43;;;;;;;8.18;5.20;;;;;;;-5.73;73.55;96693.63;5116073;28;20059;-63
2021/12/24 02:12:10;;;;;;;7.38;5.35;;;;;;;-5.68;73.79;96688.66;5116050;28;20024;-68
2021/12/24 02:14:38;;;;;;;7.40;5.10;;;;;;;-5.64;73.80;96685.34;5116105;28;20032;-61
2021/12/24 02:17:26;;;;;;;9.10;5.15;;;;;;;-5.58;74.11;96698.28;5116169;28;20462;-63
2021/12/24 02:28:35;;;;;;;6.80;4.93;;;;;;;-5.47;74.19;96681.63;5116063;28;20498;-65
2021/12/24 02:31:01;;;;;;;6.25;4.60;;;;;;;-5.45;74.47;96666.31;5115786;28;20024;-64
2021/12/24 02:33:27;;;;;;;6.47;4.85;;;;;;;-5.44;74.23;96657.88;5115595;28;20095;-67
2021/12/24 02:35:52;;;;;;;8.25;4.85;;;;;;;-5.36;74.12;96658.09;5115646;28;20423;-67
2021/12/24 02:38:19;;;;;;;7.20;5.25;;;;;;;-5.38;74.29;96663.16;5115713;28;20024;-65
2021/12/24 02:40:45;;;;;;;8.27;5.55;;;;;;;-5.34;74.32;96648.78;5115610;28;20454;-63
2021/12/24 02:43:15;;;;;;;8.55;4.75;;;;;;;-5.33;74.25;96645.41;5115519;28;20458;-67
2021/12/24 02:45:43;;;;;;;8.70;4.78;;;;;;;-5.36;74.05;96643.63;5115376;28;20032;-61
2021/12/24 02:48:25;;;;;;;6.30;4.88;;;;;;;-5.34;73.83;96634.34;5115366;28;20019;-65
2021/12/24 02:54:01;;;;;;;7.57;5.00;;;;;;;-5.33;74.31;96642.88;5091782;28;20039;-63
2021/12/24 02:56:38;;;;;;;9.05;4.60;;;;;;;-5.27;74.18;96639.59;5115194;28;20035;-66
2021/12/24 02:59:14;;;;;;;8.55;5.53;;;;;;;-5.27;74.22;96635.34;5115265;28;20034;-66
2021/12/24 03:01:43;;;;;;;8.00;5.00;;;;;;;-5.24;74.02;96629.47;5115169;28;20053;-64
2021/12/24 03:04:10;;;;;;;9.38;6.05;;;;;;;-5.18;74.14;96629.63;5115189;28;20026;-65
2021/12/24 03:06:45;;;;;;;7.85;5.43;;;;;;;-5.14;74.21;96636.56;5114978;28;20028;-63
2021/12/24 03:09:14;;;;;;;7.63;5.07;;;;;;;-5.08;74.32;96634.13;5114791;28;20469;-63
2021/12/24 03:11:41;;;;;;;8.05;5.45;;;;;;;-4.98;74.41;96629.25;5115035;28;20032;-64
2021/12/24 03:14:08;;;;;;;7.22;4.82;;;;;;;-4.97;73.82;96636.09;5114983;28;20038;-63
2021/12/24 03:16:36;;;;;;;7.55;5.30;;;;;;;-5.01;73.88;96630.06;5114899;28;20016;-67
2021/12/24 03:19:02;;;;;;;9.13;6.22;;;;;;;-5.01;74.18;96637.72;5114779;28;20027;-66
2021/12/24 03:21:54;;;;;;;14.48;8.25;;;;;;;-5.11;73.36;96626.41;5113347;28;20358;-65
2021/12/24 03:26:48;;;;;;;12.02;7.32;;;;;;;-5.16;72.28;96622.88;5114747;27;20458;-65
2021/12/24 03:29:16;;;;;;;13.27;7.05;;;;;;;-5.24;72.37;96616.72;5114651;28;20039;-63
2021/12/24 03:31:42;;;;;;;12.73;7.43;;;;;;;-5.22;72.06;96610.84;5114537;28;20544;-68
2021/12/24 03:34:12;;;;;;;13.93;8.27;;;;;;;-5.22;71.93;96609.97;5114412;27;20484;-66
2021/12/24 03:36:38;;;;;;;15.57;7.82;;;;;;;-5.24;71.97;96604.81;5114487;28;20042;-68
2021/12/24 03:39:08;;;;;;;13.65;7.95;;;;;;;-5.25;72.09;96612.44;5114454;28;20389;-67
2021/12/24 03:41:34;;;;;;;9.35;6.95;;;;;;;-5.24;71.91;96609.06;5114466;28;20024;-64
2021/12/24 03:43:59;;;;;;;12.93;7.93;;;;;;;-5.27;71.97;96603.91;5114238;28;20088;-67
2021/12/24 03:46:35;;;;;;;13.48;8.15;;;;;;;-5.26;71.98;96596.28;5114312;28;20451;-67
2021/12/24 03:49:05;;;;;;;14.02;8.07;;;;;;;-5.32;72.20;96591.88;5114237;28;20130;-64
2021/12/24 03:56:51;;;;;;;12.23;7.70;;;;;;;-5.38;73.13;96586.63;5097906;28;20043;-66
2021/12/24 03:59:17;;;;;;;10.90;6.60;;;;;;;-5.34;73.02;96585.00;5114010;28;20110;-67
2021/12/24 04:01:42;;;;;;;9.80;6.32;;;;;;;-5.35;73.04;96590.94;5114045;28;20023;-64
2021/12/24 04:04:09;;;;;;;11.18;6.70;;;;;;;-5.37;73.03;96579.81;5114024;28;20470;-63
2021/12/24 04:06:34;;;;;;;9.90;6.63;;;;;;;-5.35;72.74;96581.63;5114122;28;20114;-66
2021/12/24 04:09:04;;;;;;;11.70;7.00;;;;;;;-5.34;72.53;96578.22;5113725;28;20160;-66
2021/12/24 04:11:29;;;;;;;10.27;6.50;;;;;;;-5.31;72.08;96592.75;5113863;28;20114;-65
2021/12/24 04:13:55;;;;;;;10.43;6.40;;;;;;;-5.32;71.81;96591.03;5113844;28;20116;-67
2021/12/24 04:16:20;;;;;;;8.68;6.05;;;;;;;-5.35;71.95;96588.38;5113874;28;20107;-62
2021/12/24 04:19:12;;;;;;;8.63;5.97;;;;;;;-5.38;71.66;96580.66;5113817;28;20035;-63
2021/12/24 04:27:06;;;;;;;8.73;5.65;;;;;;;-5.76;71.11;96578.81;5113973;28;20377;-66
2021/12/24 04:29:31;;;;;;;8.60;5.45;;;;;;;-5.86;71.18;96576.06;5113535;28;20023;-65
2021/12/24 04:32:09;;;;;;;8.65;5.78;;;;;;;-5.97;71.26;96580.84;5113585;28;20470;-66
2021/12/24 04:34:37;;;;;;;11.98;6.40;;;;;;;-5.99;71.25;96572.28;5113525;28;20028;-61
2021/12/24 05:01:40;;;;;;;9.32;5.75;;;;;;;-6.31;72.05;96574.84;5113406;28;20111;-64
2021/12/24 05:04:09;;;;;;;9.93;5.60;;;;;;;-6.40;72.11;96572.88;5113434;28;20434;-67
2021/12/24 05:06:40;;;;;;;10.68;6.00;;;;;;;-6.38;72.36;96572.94;5113242;28;20461;-65
2021/12/24 05:09:07;;;;;;;9.05;5.25;;;;;;;-6.40;72.30;96572.88;5113147;28;20024;-66
2021/12/24 05:11:33;;;;;;;10.48;6.10;;;;;;;-6.38;72.31;96565.28;5113291;28;20023;-64
2021/12/24 05:13:59;;;;;;;9.55;6.25;;;;;;;-6.51;72.42;96561.50;5113273;28;20437;-64
2021/12/24 05:16:37;;;;;;;10.45;6.15;;;;;;;-6.60;72.47;96562.09;5113255;28;20028;-68
2021/12/24 05:21:35;;;;;;;13.13;6.50;;;;;;;-6.56;72.53;96557.97;5113056;28;20378;-67
2021/12/24 05:24:07;;;;;;;10.13;5.68;;;;;;;-6.56;72.43;96558.84;5113018;28;20051;-67
2021/12/24 05:26:34;;;;;;;10.75;6.43;;;;;;;-6.52;72.27;96565.75;5113031;28;20038;-68
2021/12/24 05:29:01;;;;;;;9.48;6.13;;;;;;;-6.63;72.06;96573.06;5113157;28;20027;-63
2021/12/24 05:31:28;;;;;;;9.20;5.45;;;;;;;-6.70;72.30;96566.06;5113120;28;20050;-66
2021/12/24 05:33:54;;;;;;;9.32;6.45;;;;;;;-6.67;72.33;96565.28;5114070;28;20550;-65
2021/12/24 05:36:20;;;;;;;11.77;6.47;;;;;;;-6.72;72.27;96558.38;5116750;28;20047;-64
2021/12/24 05:38:46;;;;;;;10.30;6.03;;;;;;;-6.88;72.52;96553.63;5116813;28;20055;-63
2021/12/24 05:41:13;;;;;;;10.48;6.43;;;;;;;-6.82;72.71;96556.38;5116790;28;20501;-66
2021/12/24 05:43:39;;;;;;;10.45;6.95;;;;;;;-6.80;72.49;96556.41;5116588;28;20381;-67
2021/12/24 05:46:05;;;;;;;10.80;6.72;;;;;;;-6.81;72.34;96552.16;5116594;28;20465;-67
2021/12/24 05:48:30;;;;;;;9.93;5.90;;;;;;;-6.85;72.39;96552.06;5116521;28;20035;-68
2021/12/24 05:50:57;;;;;;;13.90;6.05;;;;;;;-6.78;72.33;96553.09;5116599;28;20098;-64
2021/12/24 05:53:24;;;;;;;9.48;6.18;;;;;;;-6.76;71.89;96541.28;5116472;28;20106;-68
2021/12/24 05:55:50;;;;;;;11.55;6.18;;;;;;;-6.70;71.81;96555.00;5116504;28;20044;-67
2021/12/24 05:58:16;;;;;;;13.68;6.50;;;;;;;-6.69;71.82;96560.16;5116436;28;20059;-66
2021/12/24 06:00:43;;;;;;;10.20;6.30;;;;;;;-6.75;72.03;96562.50;5116286;28;20030;-65
2021/12/24 06:03:10;;;;;;;11.38;6.55;;;;;;;-6.77;72.03;96559.91;5116249;28;20034;-64
2021/12/24 06:05:38;;;;;;;10.30;6.30;;;;;;;-6.73;72.25;96564.28;5116407;28;20381;-65
2021/12/24 06:08:05;;;;;;;11.38;6.10;;;;;;;-6.69;72.35;96570.31;5116268;27;20059;-66
2021/12/24 06:10:33;;;;;;;12.00;6.63;;;;;;;-6.57;72.32;96566.44;5115964;28;20030;-66
2021/12/24 06:12:59;;;;;;;12.73;7.03;;;;;;;-6.56;72.25;96563.94;5116107;28;20049;-67
2021/12/24 06:15:26;;;;;;;11.80;6.47;;;;;;;-6.48;71.98;96553.97;5116049;28;20020;-64
2021/12/24 06:17:55;;;;;;;10.25;6.68;;;;;;;-6.30;71.80;96556.19;5116002;28;20027;-65
2021/12/24 06:20:23;;;;;;;14.13;6.28;;;;;;;-6.25;71.40;96557.19;5115891;28;20020;-68
2021/12/24 06:22:50;;;;;;;12.38;6.63;;;;;;;-6.22;71.63;96559.81;5115725;28;20039;-65
2021/12/24 06:25:17;;;;;;;9.48;6.63;;;;;;;-6.06;71.38;96559.38;5115897;28;20069;-65
2021/12/24 06:27:44;;;;;;;10.73;6.35;;;;;;;-5.94;71.15;96549.47;5115839;28;20374;-67
2021/12/24 06:30:11;;;;;;;9.57;6.72;;;;;;;-5.77;70.85;96566.91;5115827;28;20415;-67
2021/12/24 06:32:37;;;;;;;10.98;6.43;;;;;;;-5.59;70.53;96567.41;5115883;28;20024;-64
2021/12/24 06:35:05;;;;;;;12.50;6.38;;;;;;;-5.36;70.10;96579.88;5115694;28;20492;-65
2021/12/24 06:37:31;;;;;;;11.23;6.60;;;;;;;-5.18;69.83;96568.38;5115522;28;20020;-68
2021/12/24 06:39:56;;;;;;;9.25;6.00;;;;;;;-5.02;69.91;96556.00;5115650;28;20050;-63
2021/12/24 06:42:22;;;;;;;11.85;6.07;;;;;;;-4.88;69.36;96564.00;5115676;28;20106;-64
2021/12/24 06:44:48;;;;;;;10.05;5.93;;;;;;;-4.62;69.24;96556.06;5113863;28;20483;-65
2021/12/24 06:47:14;;;;;;;12.73;6.18;;;;;;;-4.28;68.59;96543.16;5115432;28;20020;-65
2021/12/24 06:49:40;;;;;;;8.57;6.07;;;;;;;-4.18;68.09;96535.69;5115361;28;20035;-65
2021/12/24 06:52:06;;;;;;;13.02;6.95;;;;;;;-4.05;68.36;96551.28;5115371;28;20019;-64
2021/12/24 06:54:33;;;;;;;9.48;6.82;;;;;;;-4.08;68.38;96553.75;5115346;28;20040;-68
2021/12/24 06:57:00;;;;;;;9.25;6.18;;;;;;;-3.95;67.93;96549.75;5115253;28;20023;-64
2021/12/24 06:59:27;;;;;;;9.15;5.63;;;;;;;-3.88;67.02;96549.06;5115100;28;20043;-65
2021/12/24 07:01:52;;;;;;;9.65;6.45;;;;;;;-3.83;67.10;96547.44;5115082;28;20027;-66
2021/12/24 07:04:18;;;;;;;10.23;6.72;;;;;;;-3.72;66.73;96549.31;5115072;28;20011;-67
2021/12/24 07:06:45;;;;;;;11.30;7.20;;;;;;;-3.67;67.38;96550.28;5115157;28;20023;-66
2021/12/24 07:09:15;;;;;;;11.18;7.10;;;;;;;-3.60;67.70;96561.47;5115096;28;20028;-65
2021/12/24 07:11:42;;;;;;;12.95;7.22;;;;;;;-3.48;67.84;96554.03;5114957;28;20022;-65
2021/12/24 07:14:07;;;;;;;11.68;7.80;;;;;;;-3.42;68.08;96540.47;5114983;28;20023;-64
2021/12/24 07:16:34;;;;;;;11.90;6.72;;;;;;;-3.25;67.91;96543.31;5114841;28;20115;-63
2021/12/24 07:18:59;;;;;;;11.98;7.28;;;;;;;-3.00;67.61;96541.16;5114882;28;20362;-66
2021/12/24 07:21:25;;;;;;;10.55;7.13;;;;;;;-2.13;66.66;96532.94;5114698;28;20026;-65
2021/12/24 07:23:51;;;;;;;9.70;5.93;;;;;;;-0.85;60.37;96535.00;5114440;28;20126;-64
2021/12/24 07:26:16;;;;;;;8.23;5.90;;;;;;;0.25;56.98;96532.09;5114572;28;20020;-63
2021/12/24 07:28:42;;;;;;;11.57;6.53;;;;;;;1.49;55.33;96537.31;5114650;28;20115;-68
2021/12/24 07:31:08;;;;;;;9.55;5.95;;;;;;;2.47;51.80;96534.34;5114545;28;20024;-66
2021/12/24 07:33:34;;;;;;;13.65;7.57;;;;;;;2.94;50.31;96528.88;5114611;28;20078;-66
2021/12/24 07:36:00;;;;;;;18.33;8.95;;;;;;;3.16;48.47;96526.97;5114513;28;20489;-67
2021/12/24 07:38:25;;;;;;;12.27;7.80;;;;;;;2.90;48.20;96533.22;5114460;28;20029;-65
2021/12/24 07:40:51;;;;;;;12.68;8.15;;;;;;;2.37;50.61;96522.34;5114453;28;20347;-68
2021/12/24 07:43:17;;;;;;;14.98;9.27;;;;;;;2.17;52.18;96525.91;5114546;28;20019;-68
2021/12/24 07:45:45;;;;;;;15.38;9.30;;;;;;;2.45;51.19;96525.75;5114457;28;20351;-64
2021/12/24 07:48:13;;;;;;;17.67;10.90;;;;;;;3.41;49.05;96536.22;5114243;28;20148;-68
2021/12/24 07:53:10;;;;;;;15.00;8.80;;;;;;;4.18;47.35;96520.69;5114202;28;20035;-63
2021/12/24 07:55:37;;;;;;;10.43;8.23;;;;;;;4.28;46.24;96527.47;5114031;28;20065;-68
2021/12/24 07:58:04;;;;;;;14.02;8.88;;;;;;;4.66;45.28;96532.16;5113600;28;20103;-67
2021/12/24 08:00:31;;;;;;;13.43;8.90;;;;;;;4.65;44.65;96527.84;5113997;28;20024;-67
2021/12/24 08:02:58;;;;;;;12.68;9.05;;;;;;;4.80;45.10;96530.22;5114045;28;20051;-66
2021/12/24 08:05:25;;;;;;;11.45;7.93;;;;;;;5.61;42.97;96517.66;5114102;28;20072;-65
2021/12/24 08:07:53;;;;;;;11.32;8.13;;;;;;;6.79;39.73;96504.00;5113830;28;20075;-67
2021/12/24 08:10:20;;;;;;;9.38;7.50;;;;;;;7.96;36.59;96493.22;5113889;28;20024;-68
2021/12/24 08:12:46;;;;;;;9.77;6.68;;;;;;;8.66;33.30;96505.97;5114013;28;20024;-69
2021/12/24 08:15:12;;;;;;;8.77;6.80;;;;;;;9.19;32.30;96501.72;5113749;27;20035;-68
2021/12/24 08:17:39;;;;;;;10.00;6.63;;;;;;;9.71;32.07;96500.81;5113809;28;20049;-71
2021/12/24 08:20:06;;;;;;;11.30;7.10;;;;;;;10.31;31.02;96490.84;5113900;28;20023;-68
2021/12/24 08:22:32;;;;;;;8.30;6.78;;;;;;;10.98;29.79;96470.84;5113467;28;20482;-69
2021/12/24 08:24:58;;;;;;;10.27;6.68;;;;;;;9.98;30.34;96458.06;5113740;28;20024;-66
2021/12/24 08:27:24;;;;;;;10.38;7.50;;;;;;;9.19;31.79;96457.34;5113645;28;20026;-64
2021/12/24 08:29:50;;;;;;;12.90;9.85;;;;;;;8.70;33.30;96451.97;5113559;28;20373;-65
2021/12/24 08:32:16;;;;;;;14.48;9.43;;;;;;;8.79;33.37;96472.53;5113669;28;20057;-69
2021/12/24 08:34:43;;;;;;;10.52;8.52;;;;;;;8.18;34.51;96476.09;5113699;28;20020;-66
2021/12/24 08:37:09;;;;;;;12.15;7.40;;;;;;;7.38;37.24;96469.59;5113578;28;20024;-72
2021/12/24 08:39:34;;;;;;;10.23;7.22;;;;;;;7.88;36.76;96470.84;5113552;28;20015;-67
2021/12/24 08:42:00;;;;;;;9.07;6.93;;;;;;;8.95;34.44;96459.00;5113507;28;20354;-64
2021/12/24 08:44:29;;;;;;;10.32;7.72;;;;;;;9.60;32.25;96454.19;5113510;28;20097;-66
2021/12/24 08:46:56;;;;;;;11.30;7.18;;;;;;;9.42;32.50;96447.00;5113524;28;20028;-68
2021/12/24 08:49:23;;;;;;;8.65;6.68;;;;;;;8.94;33.08;96447.69;5113489;28;20035;-63
2021/12/24 08:51:50;;;;;;;12.20;7.05;;;;;;;8.87;33.73;96446.19;5113517;28;20031;-66
2021/12/24 08:54:17;;;;;;;10.20;7.00;;;;;;;8.89;33.90;96436.56;5113412;28;20054;-63
2021/12/24 08:56:43;;;;;;;10.13;7.00;;;;;;;8.77;34.09;96431.75;5113520;28;20028;-65
2021/12/24 08:59:09;;;;;;;10.43;7.78;;;;;;;8.55;34.52;96427.25;5113362;28;20027;-65
2021/12/24 09:01:35;;;;;;;10.95;7.72;;;;;;;8.47;34.32;96430.91;5113303;28;20028;-68
2021/12/24 09:04:01;;;;;;;11.32;7.25;;;;;;;8.01;33.88;96432.31;5113293;28;20408;-68
2021/12/24 09:06:26;;;;;;;11.45;7.65;;;;;;;7.57;36.37;96433.53;5113247;28;20034;-64
2021/12/24 09:08:52;;;;;;;9.45;7.03;;;;;;;7.04;36.50;96421.88;5116056;28;20023;-66
2021/12/24 09:11:18;;;;;;;9.63;6.97;;;;;;;6.27;37.87;96425.47;5117432;28;20024;-70
2021/12/24 09:13:45;;;;;;;14.02;7.15;;;;;;;5.79;39.91;96422.13;5117299;28;20072;-68
2021/12/24 09:16:11;;;;;;;13.52;7.32;;;;;;;5.39;39.98;96428.97;5117094;27;20066;-65
2021/12/24 09:18:40;;;;;;;10.60;6.95;;;;;;;4.99;41.25;96420.16;5117261;28;20055;-63
2021/12/24 09:21:14;;;;;;;12.68;7.28;;;;;;;4.55;42.91;96418.31;5117252;28;20077;-64
2021/12/24 09:23:42;;;;;;;12.45;7.18;;;;;;;4.53;42.48;96413.16;5116921;28;20074;-65
2021/12/24 09:26:07;;;;;;;12.05;6.75;;;;;;;4.48;43.56;96408.94;5117143;28;20092;-67
2021/12/24 09:28:33;;;;;;;10.25;7.30;;;;;;;4.41;43.41;96396.09;5117014;28;20468;-62
2021/12/24 09:30:59;;;;;;;12.38;6.88;;;;;;;4.40;43.89;96386.56;5116982;28;20347;-66
2021/12/24 09:33:24;;;;;;;10.30;6.78;;;;;;;4.13;44.92;96391.28;5116946;28;20043;-67
2021/12/24 09:35:50;;;;;;;7.57;5.82;;;;;;;4.15;44.70;96386.97;5116976;28;20027;-67
2021/12/24 09:38:15;;;;;;;10.10;6.43;;;;;;;4.17;44.80;96374.00;5116874;28;20469;-64
2021/12/24 09:40:43;;;;;;;9.93;6.10;;;;;;;4.26;44.23;96371.28;5116747;28;20027;-64
2021/12/24 09:43:09;;;;;;;9.23;5.30;;;;;;;4.30;43.49;96374.66;5116701;28;20024;-65
2021/12/24 09:45:35;;;;;;;9.93;5.60;;;;;;;4.18;43.68;96365.34;5116636;28;20385;-66
2021/12/24 09:48:00;;;;;;;8.93;6.10;;;;;;;4.22;44.43;96356.66;5115400;28;20165;-63
2021/12/24 09:50:28;;;;;;;8.93;5.45;;;;;;;4.29;44.66;96355.69;5116577;28;20076;-68
2021/12/24 09:52:54;;;;;;;6.18;4.80;;;;;;;4.35;43.78;96336.59;5116460;28;20384;-65
2021/12/24 09:55:23;;;;;;;9.85;4.72;;;;;;;4.42;43.76;96330.44;5116435;28;20038;-70
2021/12/24 09:57:49;;;;;;;6.43;4.80;;;;;;;4.39;43.39;96322.72;5116609;28;20480;-65
2021/12/24 10:00:20;;;;;;;8.25;5.95;;;;;;;4.39;43.07;96314.06;5116383;28;20023;-66
2021/12/24 10:02:49;;;;;;;8.15;5.90;;;;;;;4.45;43.20;96306.22;5116396;28;20067;-67
2021/12/24 10:05:32;;;;;;;8.00;5.25;;;;;;;4.55;42.82;96296.56;5116161;28;20027;-67
2021/12/24 10:08:16;;;;;;;9.30;5.85;;;;;;;4.71;42.93;96293.66;5116394;28;20020;-65
2021/12/24 10:10:45;;;;;;;10.13;6.07;;;;;;;4.87;43.40;96291.63;5116246;28;20027;-68
2021/12/24 10:13:28;;;;;;;8.75;6.35;;;;;;;4.98;42.58;96300.06;5116128;28;20015;-63
2021/12/24 10:16:06;;;;;;;8.25;5.97;;;;;;;4.83;42.06;96311.59;5115979;28;20373;-66
2021/12/24 10:18:36;;;;;;;8.40;6.07;;;;;;;4.78;43.47;96323.75;5116221;28;20027;-68
2021/12/24 10:21:06;;;;;;;8.67;6.00;;;;;;;4.80;42.89;96316.81;5115334;28;20020;-68
2021/12/24 10:23:39;;;;;;;;;;;;;;;4.78;42.83;96306.50;5116264;28;20291;-70
2021/12/24 10:26:23;;;;;;;12.70;8.13;;;;;;;4.85;43.54;96312.41;5115971;28;19912;-67
2021/12/24 10:28:51;;;;;;;9.88;6.80;;;;;;;4.97;43.04;96311.31;5115861;28;20058;-65
2021/12/24 10:31:22;;;;;;;11.18;6.63;;;;;;;4.98;42.97;96307.84;5115778;27;20028;-63
2021/12/24 10:34:28;;;;;;;9.00;6.30;;;;;;;5.05;42.42;96305.97;5115890;28;20046;-68
2021/12/24 10:36:56;;;;;;;13.23;8.10;;;;;;;5.10;42.94;96298.09;5033228;28;20119;-70
2021/12/24 10:39:46;;;;;;;7.03;5.60;;;;;;;5.12;42.53;96304.13;5102444;28;20031;-68
2021/12/24 10:42:16;;;;;;;10.85;7.03;;;;;;;5.08;43.40;96292.94;5105738;28;20035;-64
2021/12/24 10:44:44;;;;;;;9.70;6.57;;;;;;;5.13;42.58;96291.13;5115450;28;20080;-65
2021/12/24 10:47:23;;;;;;;8.85;6.07;;;;;;;5.14;42.85;96279.88;5115410;28;20016;-67
2021/12/24 10:50:24;;;;;;;7.15;5.35;;;;;;;5.11;43.95;96281.66;5115385;28;20532;-64
2021/12/24 10:55:28;;;;;;;6.40;5.43;;;;;;;5.08;42.21;96264.44;5115425;28;20024;-70
2021/12/24 10:57:59;;;;;;;9.60;5.57;;;;;;;5.08;42.69;96248.03;5115373;28;20026;-63
2021/12/24 11:00:42;;;;;;;13.05;5.78;;;;;;;4.95;43.35;96243.09;5115411;28;20031;-69
2021/12/24 11:03:20;;;;;;;9.88;6.25;;;;;;;4.96;43.77;96238.78;5115103;28;20030;-67
2021/12/24 11:05:48;;;;;;;8.32;5.88;;;;;;;4.96;43.40;96239.63;5115110;28;20073;-64
2021/12/24 11:08:16;;;;;;;7.65;5.68;;;;;;;4.98;43.08;96240.44;5114976;28;20120;-68
2021/12/24 11:10:48;;;;;;;6.05;4.80;;;;;;;5.04;43.55;96247.25;5114809;28;20055;-62
2021/12/24 11:13:20;;;;;;;8.93;5.47;;;;;;;5.14;42.41;96245.28;5115042;28;20088;-62
2021/12/24 11:15:49;;;;;;;8.45;4.65;;;;;;;5.25;42.67;96224.31;5114965;28;20068;-64
2021/12/24 11:18:16;;;;;;;6.78;5.00;;;;;;;5.19;42.85;96227.91;5114784;27;20020;-65
2021/12/24 11:20:43;;;;;;;7.93;5.40;;;;;;;5.36;44.09;96213.72;5114834;28;20107;-66
2021/12/24 11:23:17;;;;;;;10.73;7.10;;;;;;;5.46;43.58;96201.38;5114550;28;20079;-65
2021/12/24 11:25:54;;;;;;;10.40;7.50;;;;;;;5.52;43.20;96193.47;5114742;28;20036;-65
2021/12/24 11:28:23;;;;;;;8.55;5.10;;;;;;;5.58;43.57;96188.13;5114843;27;20027;-62
2021/12/24 11:30:55;;;;;;;8.25;6.15;;;;;;;5.61;44.18;96192.38;5114580;28;20035;-70
2021/12/24 11:33:27;;;;;;;9.23;5.75;;;;;;;5.62;43.94;96194.09;5114686;28;20108;-70
2021/12/24 11:35:55;;;;;;;7.78;5.25;;;;;;;5.73;43.66;96201.63;5114509;27;20031;-66
2021/12/24 11:38:25;;;;;;;7.72;5.30;;;;;;;5.79;43.10;96202.34;5114410;28;20030;-61
2021/12/24 11:40:53;;;;;;;7.32;5.03;;;;;;;5.76;43.02;96196.38;5114457;28;20062;-63
2021/12/24 11:43:20;;;;;;;8.13;5.55;;;;;;;5.73;42.94;96199.88;5114336;28;20016;-65
2021/12/24 11:45:47;;;;;;;10.75;5.80;;;;;;;5.69;43.68;96191.31;5114223;28;20019;-64
2021/12/24 11:48:13;;;;;;;11.15;8.00;;;;;;;5.61;42.96;96188.06;5114362;28;20111;-66
2021/12/24 11:50:40;;;;;;;8.25;5.70;;;;;;;5.52;43.85;96190.88;5114343;28;20377;-62
2021/12/24 11:53:09;;;;;;;7.95;5.95;;;;;;;5.50;43.90;96196.09;5114244;28;20385;-66
2021/12/24 11:55:39;;;;;;;13.45;5.95;;;;;;;5.47;43.95;96184.91;5114065;28;20020;-66
2021/12/24 11:58:15;;;;;;;8.57;6.03;;;;;;;5.48;43.30;96202.22;5114095;28;20487;-66
2021/12/24 12:00:43;;;;;;;9.73;6.10;;;;;;;5.46;43.50;96201.38;5114151;28;20035;-67
2021/12/24 12:03:31;;;;;;;8.95;5.78;;;;;;;5.42;43.66;96196.25;5114094;28;20023;-66
2021/12/24 12:05:57;;;;;;;7.35;5.22;;;;;;;5.50;43.45;96190.03;5113959;28;20059;-64
2021/12/24 12:08:26;;;;;;;6.43;4.93;;;;;;;5.50;43.98;96184.84;5113856;28;20049;-67
2021/12/24 12:11:04;;;;;;;8.18;5.40;;;;;;;5.39;43.61;96174.75;5113951;28;20430;-65
2021/12/24 12:13:44;;;;;;;8.23;5.50;;;;;;;5.40;43.86;96176.44;5113883;28;20028;-62
2021/12/24 12:16:13;;;;;;;8.20;5.30;;;;;;;5.33;44.27;96177.47;5113926;28;20032;-67
2021/12/24 12:18:47;;;;;;;9.43;6.25;;;;;;;5.35;44.79;96179.13;5113869;28;20028;-68
2021/12/24 12:21:34;;;;;;;8.73;6.60;;;;;;;5.46;44.39;96167.66;5113859;28;20036;-63
2021/12/24 12:26:44;;;;;;;7.78;5.72;;;;;;;5.50;44.50;96159.78;5113805;28;20565;-65
2021/12/24 12:29:23;;;;;;;10.25;6.68;;;;;;;5.53;43.75;96151.06;5113781;28;20392;-63
2021/12/24 12:32:16;;;;;;;12.68;5.65;;;;;;;5.54;44.28;96157.97;5113720;28;20023;-68
2021/12/24 12:34:45;;;;;;;7.35;5.30;;;;;;;5.63;43.75;96168.09;5075354;28;20040;-64
2021/12/24 12:37:17;;;;;;;10.23;6.60;;;;;;;5.55;44.56;96163.13;5112346;28;20027;-68
2021/12/24 12:39:46;;;;;;;7.72;5.70;;;;;;;5.59;43.81;96166.47;5113715;28;20051;-67
2021/12/24 12:42:17;;;;;;;13.55;7.18;;;;;;;5.57;44.21;96169.09;5113273;28;20099;-68
2021/12/24 12:44:51;;;;;;;;;;;;;;;5.60;43.99;96175.13;5114046;28;20052;-65
2021/12/24 12:47:22;;;;;;;10.18;6.20;;;;;;;5.62;44.10;96178.50;5113381;28;19919;-63
2021/12/24 12:49:49;;;;;;;6.13;4.78;;;;;;;5.61;44.50;96167.31;5113368;28;20036;-63
2021/12/24 12:52:31;;;;;;;9.48;6.25;;;;;;;5.66;44.28;96174.97;5113488;28;20362;-66
2021/12/24 12:54:58;;;;;;;6.93;5.43;;;;;;;5.69;44.15;96175.75;5113480;28;20034;-65
2021/12/24 12:57:32;;;;;;;9.40;5.57;;;;;;;5.73;44.45;96176.53;5113394;28;20106;-66
2021/12/24 13:00:07;;;;;;;10.00;5.95;;;;;;;5.72;44.50;96172.22;5113347;28;20031;-66
2021/12/24 13:02:54;;;;;;;11.68;6.30;;;;;;;5.71;44.28;96173.09;5113382;28;20035;-64
2021/12/24 13:05:19;;;;;;;9.10;6.75;;;;;;;5.71;45.16;96170.50;5113354;28;20377;-67
2021/12/24 13:07:45;;;;;;;10.50;7.05;;;;;;;5.58;44.86;96169.97;5113323;28;20023;-65
2021/12/24 13:10:12;;;;;;;13.02;7.03;;;;;;;5.56;45.58;96170.00;5113249;28;20028;-65
2021/12/24 13:12:39;;;;;;;12.35;7.55;;;;;;;5.57;45.48;96168.28;5113244;28;20473;-65
2021/12/24 13:15:05;;;;;;;9.38;6.63;;;;;;;5.56;45.82;96166.53;5113170;28;20072;-68
2021/12/24 13:17:32;;;;;;;9.85;6.38;;;;;;;5.52;45.16;96162.31;5113255;28;20031;-62
2021/12/24 13:20:14;;;;;;;10.77;6.25;;;;;;;5.48;45.56;96164.13;5113152;28;20473;-65
2021/12/24 13:22:39;;;;;;;9.70;6.50;;;;;;;5.43;45.33;96160.81;5112912;28;20052;-66